Terminal Aerodrome Forecast
Issued by NWS

Home | Current Version | Previous Version | Text Only | Print | Product List | Glossary On
Versions: 1 2 3 4 5 6 7 8 9 10 11 12
000
FTUS46 KSTO 211100
TAFMHR
TAF
KMHR 211120Z 2112/2212 13006KT P6SM VCSH SCT120 BKN200
      TEMPO 2113/2116 BKN012
     FM211800 21006KT P6SM SCT200
     FM220600 14005KT P6SM SKC
      AMD NOT SKED=

USA.gov is the U.S. government's official web portal to all federal, state and local government web resources and services.